Beloretsk, Russia
Current Conditions -  °F | °C
As of 6:30 AM on Saturday 25 Oct 2014 (Local Time) from UWUU Reporting Station
Overcast Overcast  
Wind Chill:   Ceiling: 1100
Heat Index: 14°   Visibility: 6mi
Dew Point: 10°   Wind: 11mph
Humidity: 86%   Direction: 300°WNW
Pressure: 30.06"   Gusts: 18mph
Location:  54.55°N, 56.32°E
Report Text: UWUU 250130Z 30005G08MPS 9999 OVC011 M10/M12 Q1018 32421050NOSIG RMK QFE751/1001
Loading
Personal Weather Stations






























Interactive Weather Map
Tropical Storm Tracking
New forecast layout! Learn more

10-Day Weather Forecast

Advertisements
Track Severe Weather on mobile